sensor_id;sensor_type;location;lat;lon;timestamp;pressure;altitude;pressure_sealevel;temperature
51149;BMP280;37210;50.058;8.688;2023-11-19T00:02:12;99953.59;;;10.16
51149;BMP280;37210;50.058;8.688;2023-11-19T00:04:39;99964.91;;;10.08
51149;BMP280;37210;50.058;8.688;2023-11-19T00:07:07;99979.69;;;10.28
51149;BMP280;37210;50.058;8.688;2023-11-19T00:09:36;100006.63;;;10.61
51149;BMP280;37210;50.058;8.688;2023-11-19T00:12:04;100016.22;;;10.56
51149;BMP280;37210;50.058;8.688;2023-11-19T00:14:33;100019.72;;;10.56
51149;BMP280;37210;50.058;8.688;2023-11-19T00:17:02;99948.38;;;10.09
51149;BMP280;37210;50.058;8.688;2023-11-19T00:19:30;99991.06;;;10.23
51149;BMP280;37210;50.058;8.688;2023-11-19T00:21:58;100024.13;;;10.37
51149;BMP280;37210;50.058;8.688;2023-11-19T00:24:28;99646.00;;;8.31
51149;BMP280;37210;50.058;8.688;2023-11-19T00:26:56;99951.03;;;9.92
51149;BMP280;37210;50.058;8.688;2023-11-19T00:29:24;99957.97;;;10.02
51149;BMP280;37210;50.058;8.688;2023-11-19T00:31:51;100038.94;;;10.46
51149;BMP280;37210;50.058;8.688;2023-11-19T00:34:20;100011.06;;;10.36
51149;BMP280;37210;50.058;8.688;2023-11-19T00:36:48;99775.41;;;9.15
51149;BMP280;37210;50.058;8.688;2023-11-19T00:39:16;100031.00;;;10.69
51149;BMP280;37210;50.058;8.688;2023-11-19T00:41:47;99904.88;;;9.90
51149;BMP280;37210;50.058;8.688;2023-11-19T00:44:15;99965.72;;;10.49
51149;BMP280;37210;50.058;8.688;2023-11-19T00:46:42;99958.78;;;10.37
51149;BMP280;37210;50.058;8.688;2023-11-19T00:49:10;99950.97;;;10.27
51149;BMP280;37210;50.058;8.688;2023-11-19T00:51:40;99997.06;;;10.51
51149;BMP280;37210;50.058;8.688;2023-11-19T00:54:07;100003.97;;;10.67
51149;BMP280;37210;50.058;8.688;2023-11-19T00:56:34;99975.34;;;10.35
51149;BMP280;37210;50.058;8.688;2023-11-19T00:59:03;100009.19;;;10.73
51149;BMP280;37210;50.058;8.688;2023-11-19T01:01:31;99937.88;;;10.36
51149;BMP280;37210;50.058;8.688;2023-11-19T01:03:58;99985.69;;;10.61
51149;BMP280;37210;50.058;8.688;2023-11-19T01:06:29;99875.22;;;10.19
51149;BMP280;37210;50.058;8.688;2023-11-19T01:08:58;99984.72;;;10.81
51149;BMP280;37210;50.058;8.688;2023-11-19T01:11:26;99986.53;;;10.64
51149;BMP280;37210;50.058;8.688;2023-11-19T01:13:54;99982.22;;;10.62
51149;BMP280;37210;50.058;8.688;2023-11-19T01:16:22;99910.06;;;10.06
51149;BMP280;37210;50.058;8.688;2023-11-19T01:18:49;99960.41;;;10.66
51149;BMP280;37210;50.058;8.688;2023-11-19T01:21:17;99928.28;;;10.33
51149;BMP280;37210;50.058;8.688;2023-11-19T01:23:45;99947.31;;;10.67
51149;BMP280;37210;50.058;8.688;2023-11-19T01:26:13;99828.16;;;10.24
51149;BMP280;37210;50.058;8.688;2023-11-19T01:28:41;99896.88;;;10.41
51149;BMP280;37210;50.058;8.688;2023-11-19T01:31:10;99915.16;;;10.50
51149;BMP280;37210;50.058;8.688;2023-11-19T01:33:38;99930.63;;;10.91
51149;BMP280;37210;50.058;8.688;2023-11-19T01:36:08;99952.41;;;10.91
51149;BMP280;37210;50.058;8.688;2023-11-19T01:38:36;99932.44;;;10.77
51149;BMP280;37210;50.058;8.688;2023-11-19T01:41:04;99937.69;;;10.78
51149;BMP280;37210;50.058;8.688;2023-11-19T01:43:34;99950.69;;;10.86
51149;BMP280;37210;50.058;8.688;2023-11-19T01:46:03;99908.00;;;10.82
51149;BMP280;37210;50.058;8.688;2023-11-19T01:48:33;99928.88;;;10.88
51149;BMP280;37210;50.058;8.688;2023-11-19T01:51:03;99870.59;;;10.67
51149;BMP280;37210;50.058;8.688;2023-11-19T01:53:31;99944.53;;;10.99
51149;BMP280;37210;50.058;8.688;2023-11-19T01:56:01;99941.03;;;10.95
51149;BMP280;37210;50.058;8.688;2023-11-19T01:58:30;99934.94;;;10.93
51149;BMP280;37210;50.058;8.688;2023-11-19T02:00:59;99841.09;;;10.47
51149;BMP280;37210;50.058;8.688;2023-11-19T02:03:31;99914.00;;;10.96
51149;BMP280;37210;50.058;8.688;2023-11-19T02:05:59;99883.63;;;10.73
51149;BMP280;37210;50.058;8.688;2023-11-19T02:08:26;99788.78;;;10.48
51149;BMP280;37210;50.058;8.688;2023-11-19T02:10:54;99877.25;;;11.11
51149;BMP280;37210;50.058;8.688;2023-11-19T02:13:23;99879.06;;;11.03
51149;BMP280;37210;50.058;8.688;2023-11-19T02:15:51;99784.53;;;10.32
51149;BMP280;37210;50.058;8.688;2023-11-19T02:18:20;99880.00;;;10.93
51149;BMP280;37210;50.058;8.688;2023-11-19T02:20:49;99882.56;;;11.02
51149;BMP280;37210;50.058;8.688;2023-11-19T02:23:18;99867.81;;;10.92
51149;BMP280;37210;50.058;8.688;2023-11-19T02:25:54;99858.97;;;11.04
51149;BMP280;37210;50.058;8.688;2023-11-19T02:28:30;99859.88;;;11.00
51149;BMP280;37210;50.058;8.688;2023-11-19T02:30:59;99859.03;;;10.98
51149;BMP280;37210;50.058;8.688;2023-11-19T02:33:26;99836.59;;;10.67
51149;BMP280;37210;50.058;8.688;2023-11-19T02:35:54;99867.75;;;10.98
51149;BMP280;37210;50.058;8.688;2023-11-19T02:38:22;99810.63;;;10.35
51149;BMP280;37210;50.058;8.688;2023-11-19T02:40:49;99871.31;;;10.88
51149;BMP280;37210;50.058;8.688;2023-11-19T02:43:16;99784.31;;;10.65
51149;BMP280;37210;50.058;8.688;2023-11-19T02:45:46;99711.47;;;10.06
51149;BMP280;37210;50.058;8.688;2023-11-19T02:48:14;99858.09;;;11.09
51149;BMP280;37210;50.058;8.688;2023-11-19T02:50:42;99852.97;;;10.94
51149;BMP280;37210;50.058;8.688;2023-11-19T02:53:09;99859.84;;;11.04
51149;BMP280;37210;50.058;8.688;2023-11-19T02:55:38;99848.53;;;11.05
51149;BMP280;37210;50.058;8.688;2023-11-19T02:58:07;99847.59;;;11.08
51149;BMP280;37210;50.058;8.688;2023-11-19T03:00:47;99846.72;;;11.09
51149;BMP280;37210;50.058;8.688;2023-11-19T03:03:20;99855.38;;;11.20
51149;BMP280;37210;50.058;8.688;2023-11-19T03:05:52;99864.09;;;11.16
51149;BMP280;37210;50.058;8.688;2023-11-19T03:08:19;99773.88;;;10.59
51149;BMP280;37210;50.058;8.688;2023-11-19T03:10:47;99773.03;;;10.57
51149;BMP280;37210;50.058;8.688;2023-11-19T03:13:15;99820.72;;;10.91
51149;BMP280;37210;50.058;8.688;2023-11-19T03:15:44;99837.94;;;11.14
51149;BMP280;37210;50.058;8.688;2023-11-19T03:18:13;99845.69;;;11.26
51149;BMP280;37210;50.058;8.688;2023-11-19T03:20:40;99825.66;;;11.24
51149;BMP280;37210;50.058;8.688;2023-11-19T03:23:08;99835.31;;;11.16
51149;BMP280;37210;50.058;8.688;2023-11-19T03:25:36;99778.75;;;11.00
51149;BMP280;37210;50.058;8.688;2023-11-19T03:28:04;99721.50;;;10.70
51149;BMP280;37210;50.058;8.688;2023-11-19T03:30:32;99815.94;;;11.37
51149;BMP280;37210;50.058;8.688;2023-11-19T03:33:00;99821.25;;;11.27
51149;BMP280;37210;50.058;8.688;2023-11-19T03:35:29;99827.47;;;11.14
51149;BMP280;37210;50.058;8.688;2023-11-19T03:37:59;99832.59;;;11.26
51149;BMP280;37210;50.058;8.688;2023-11-19T03:40:27;99751.00;;;10.85
51149;BMP280;37210;50.058;8.688;2023-11-19T03:42:55;99833.69;;;11.04
51149;BMP280;37210;50.058;8.688;2023-11-19T03:45:23;99732.91;;;10.61
51149;BMP280;37210;50.058;8.688;2023-11-19T03:47:51;99839.53;;;11.34
51149;BMP280;37210;50.058;8.688;2023-11-19T03:50:19;99804.06;;;10.98
51149;BMP280;37210;50.058;8.688;2023-11-19T03:52:49;99801.19;;;11.28
51149;BMP280;37210;50.058;8.688;2023-11-19T03:55:17;99834.31;;;11.32
51149;BMP280;37210;50.058;8.688;2023-11-19T03:57:44;99842.19;;;11.29
51149;BMP280;37210;50.058;8.688;2023-11-19T04:00:13;99706.06;;;10.38
51149;BMP280;37210;50.058;8.688;2023-11-19T04:02:42;99739.78;;;10.74
51149;BMP280;37210;50.058;8.688;2023-11-19T04:05:10;99807.41;;;11.15
51149;BMP280;37210;50.058;8.688;2023-11-19T04:07:38;99829.09;;;11.29
51149;BMP280;37210;50.058;8.688;2023-11-19T04:10:07;99789.84;;;11.24
51149;BMP280;37210;50.058;8.688;2023-11-19T04:12:35;99747.47;;;10.88
51149;BMP280;37210;50.058;8.688;2023-11-19T04:15:04;99755.19;;;11.01
51149;BMP280;37210;50.058;8.688;2023-11-19T04:17:33;99811.50;;;11.42
51149;BMP280;37210;50.058;8.688;2023-11-19T04:20:01;99819.34;;;11.45
51149;BMP280;37210;50.058;8.688;2023-11-19T04:22:30;99769.88;;;11.17
51149;BMP280;37210;50.058;8.688;2023-11-19T04:24:58;99649.53;;;10.25
51149;BMP280;37210;50.058;8.688;2023-11-19T04:27:27;99734.66;;;10.61
51149;BMP280;37210;50.058;8.688;2023-11-19T04:29:55;99715.91;;;11.04
51149;BMP280;37210;50.058;8.688;2023-11-19T04:32:23;99818.41;;;11.50
51149;BMP280;37210;50.058;8.688;2023-11-19T04:34:51;99711.75;;;10.85
51149;BMP280;37210;50.058;8.688;2023-11-19T04:37:19;99822.00;;;11.42
51149;BMP280;37210;50.058;8.688;2023-11-19T04:39:47;99811.34;;;11.57
51149;BMP280;37210;50.058;8.688;2023-11-19T04:42:17;99781.66;;;11.56
51149;BMP280;37210;50.058;8.688;2023-11-19T04:44:47;99762.59;;;11.44
51149;BMP280;37210;50.058;8.688;2023-11-19T04:47:15;99746.25;;;11.23
51149;BMP280;37210;50.058;8.688;2023-11-19T04:49:42;99792.22;;;11.50
51149;BMP280;37210;50.058;8.688;2023-11-19T04:52:11;99781.72;;;11.53
51149;BMP280;37210;50.058;8.688;2023-11-19T04:54:42;99795.72;;;11.48
51149;BMP280;37210;50.058;8.688;2023-11-19T04:57:10;99748.75;;;11.36
51149;BMP280;37210;50.058;8.688;2023-11-19T04:59:38;99770.47;;;11.45
51149;BMP280;37210;50.058;8.688;2023-11-19T05:02:09;99730.47;;;11.30
51149;BMP280;37210;50.058;8.688;2023-11-19T05:04:37;99776.50;;;11.50
51149;BMP280;37210;50.058;8.688;2023-11-19T05:07:04;99723.50;;;11.30
51149;BMP280;37210;50.058;8.688;2023-11-19T05:09:33;99797.31;;;11.62
51149;BMP280;37210;50.058;8.688;2023-11-19T05:12:01;99805.25;;;11.56
51149;BMP280;37210;50.058;8.688;2023-11-19T05:14:28;99729.84;;;11.09
51149;BMP280;37210;50.058;8.688;2023-11-19T05:16:56;99789.66;;;11.44
51149;BMP280;37210;50.058;8.688;2023-11-19T05:19:25;99668.25;;;10.78
51149;BMP280;37210;50.058;8.688;2023-11-19T05:21:53;99790.31;;;11.67
51149;BMP280;37210;50.058;8.688;2023-11-19T05:24:20;99809.53;;;11.63
51149;BMP280;37210;50.058;8.688;2023-11-19T05:26:48;99815.63;;;11.67
51149;BMP280;37210;50.058;8.688;2023-11-19T05:29:17;99792.13;;;11.58
51149;BMP280;37210;50.058;8.688;2023-11-19T05:31:45;99639.38;;;10.83
51149;BMP280;37210;50.058;8.688;2023-11-19T05:34:15;99585.00;;;10.33
51149;BMP280;37210;50.058;8.688;2023-11-19T05:36:47;99728.03;;;11.14
51149;BMP280;37210;50.058;8.688;2023-11-19T05:39:16;99811.25;;;11.69
51149;BMP280;37210;50.058;8.688;2023-11-19T05:41:44;99801.50;;;11.81
51149;BMP280;37210;50.058;8.688;2023-11-19T05:44:12;99784.78;;;11.93
51149;BMP280;37210;50.058;8.688;2023-11-19T05:46:40;99779.59;;;11.85
51149;BMP280;37210;50.058;8.688;2023-11-19T05:49:09;99687.28;;;10.92
51149;BMP280;37210;50.058;8.688;2023-11-19T05:51:37;99574.97;;;10.73
51149;BMP280;37210;50.058;8.688;2023-11-19T05:54:07;99660.03;;;11.11
51149;BMP280;37210;50.058;8.688;2023-11-19T05:56:36;99776.28;;;11.71
51149;BMP280;37210;50.058;8.688;2023-11-19T05:59:04;99787.72;;;11.63
51149;BMP280;37210;50.058;8.688;2023-11-19T06:01:35;99751.22;;;11.48
51149;BMP280;37210;50.058;8.688;2023-11-19T06:04:05;99709.63;;;11.23
51149;BMP280;37210;50.058;8.688;2023-11-19T06:06:33;99731.13;;;11.51
51149;BMP280;37210;50.058;8.688;2023-11-19T06:09:01;99790.31;;;11.64
51149;BMP280;37210;50.058;8.688;2023-11-19T06:11:34;99761.69;;;11.49
51149;BMP280;37210;50.058;8.688;2023-11-19T06:14:02;99797.22;;;11.73
51149;BMP280;37210;50.058;8.688;2023-11-19T06:16:31;99789.41;;;11.71
51149;BMP280;37210;50.058;8.688;2023-11-19T06:18:59;99802.22;;;11.94
51149;BMP280;37210;50.058;8.688;2023-11-19T06:21:27;99664.28;;;11.18
51149;BMP280;37210;50.058;8.688;2023-11-19T06:23:54;99821.47;;;11.93
51149;BMP280;37210;50.058;8.688;2023-11-19T06:26:22;99803.97;;;11.95
51149;BMP280;37210;50.058;8.688;2023-11-19T06:28:52;99581.09;;;10.73
51149;BMP280;37210;50.058;8.688;2023-11-19T06:31:25;99810.81;;;12.05
51149;BMP280;37210;50.058;8.688;2023-11-19T06:33:53;99674.72;;;11.21
51149;BMP280;37210;50.058;8.688;2023-11-19T06:36:21;99755.38;;;11.67
51149;BMP280;37210;50.058;8.688;2023-11-19T06:38:49;99686.69;;;11.42
51149;BMP280;37210;50.058;8.688;2023-11-19T06:41:17;99774.19;;;11.97
51149;BMP280;37210;50.058;8.688;2023-11-19T06:43:47;99635.81;;;10.91
51149;BMP280;37210;50.058;8.688;2023-11-19T06:46:19;99588.88;;;10.79
51149;BMP280;37210;50.058;8.688;2023-11-19T06:48:53;99639.16;;;11.04
51149;BMP280;37210;50.058;8.688;2023-11-19T06:51:35;99621.81;;;10.95
51149;BMP280;37210;50.058;8.688;2023-11-19T06:54:18;99796.81;;;12.06
51149;BMP280;37210;50.058;8.688;2023-11-19T06:56:53;99828.13;;;12.17
51149;BMP280;37210;50.058;8.688;2023-11-19T06:59:24;99804.41;;;12.26
51149;BMP280;37210;50.058;8.688;2023-11-19T07:02:23;99815.72;;;12.29
51149;BMP280;37210;50.058;8.688;2023-11-19T07:05:08;99732.69;;;11.66
51149;BMP280;37210;50.058;8.688;2023-11-19T07:07:41;99619.16;;;11.00
51149;BMP280;37210;50.058;8.688;2023-11-19T07:10:09;99674.56;;;11.35
51149;BMP280;37210;50.058;8.688;2023-11-19T07:12:37;99684.22;;;11.32
51149;BMP280;37210;50.058;8.688;2023-11-19T07:15:07;99704.91;;;12.18
51149;BMP280;37210;50.058;8.688;2023-11-19T07:17:36;99750.00;;;12.40
51149;BMP280;37210;50.058;8.688;2023-11-19T07:20:09;99688.50;;;12.06
51149;BMP280;37210;50.058;8.688;2023-11-19T07:22:44;99659.63;;;12.07
51149;BMP280;37210;50.058;8.688;2023-11-19T07:25:13;99566.16;;;11.48
51149;BMP280;37210;50.058;8.688;2023-11-19T07:27:41;99739.22;;;12.59
51149;BMP280;37210;50.058;8.688;2023-11-19T07:30:12;99737.34;;;12.67
51149;BMP280;37210;50.058;8.688;2023-11-19T07:32:40;99575.56;;;11.61
51149;BMP280;37210;50.058;8.688;2023-11-19T07:35:09;99719.44;;;12.37
51149;BMP280;37210;50.058;8.688;2023-11-19T07:37:36;99832.56;;;12.74
51149;BMP280;37210;50.058;8.688;2023-11-19T07:40:06;99724.78;;;12.31
51149;BMP280;37210;50.058;8.688;2023-11-19T07:42:35;99795.31;;;12.51
51149;BMP280;37210;50.058;8.688;2023-11-19T07:45:04;99796.75;;;12.71
51149;BMP280;37210;50.058;8.688;2023-11-19T07:47:34;99798.25;;;12.86
51149;BMP280;37210;50.058;8.688;2023-11-19T07:50:02;99800.00;;;12.85
51149;BMP280;37210;50.058;8.688;2023-11-19T07:52:30;99801.44;;;13.06
51149;BMP280;37210;50.058;8.688;2023-11-19T07:54:57;99815.00;;;13.31
51149;BMP280;37210;50.058;8.688;2023-11-19T07:57:25;99818.78;;;13.63
51149;BMP280;37210;50.058;8.688;2023-11-19T07:59:56;99799.59;;;13.60
51149;BMP280;37210;50.058;8.688;2023-11-19T08:02:24;99831.34;;;13.92
51149;BMP280;37210;50.058;8.688;2023-11-19T08:04:53;99818.22;;;13.92
51149;BMP280;37210;50.058;8.688;2023-11-19T08:07:21;99837.50;;;13.93
51149;BMP280;37210;50.058;8.688;2023-11-19T08:09:49;99827.31;;;14.17
51149;BMP280;37210;50.058;8.688;2023-11-19T08:12:16;99811.56;;;14.94
51149;BMP280;37210;50.058;8.688;2023-11-19T08:14:44;99743.88;;;14.64
51149;BMP280;37210;50.058;8.688;2023-11-19T08:17:12;99758.00;;;14.60
51149;BMP280;37210;50.058;8.688;2023-11-19T08:19:40;99835.81;;;15.08
51149;BMP280;37210;50.058;8.688;2023-11-19T08:22:09;99825.53;;;15.65
51149;BMP280;37210;50.058;8.688;2023-11-19T08:24:36;99750.09;;;14.60
51149;BMP280;37210;50.058;8.688;2023-11-19T08:27:04;99798.13;;;14.69
51149;BMP280;37210;50.058;8.688;2023-11-19T08:29:32;99824.44;;;15.04
51149;BMP280;37210;50.058;8.688;2023-11-19T08:32:00;99806.72;;;14.76
51149;BMP280;37210;50.058;8.688;2023-11-19T08:34:29;99814.75;;;17.17
51149;BMP280;37210;50.058;8.688;2023-11-19T08:36:57;99797.25;;;18.58
51149;BMP280;37210;50.058;8.688;2023-11-19T08:39:26;99775.41;;;20.15
51149;BMP280;37210;50.058;8.688;2023-11-19T08:41:53;99766.41;;;17.64
51149;BMP280;37210;50.058;8.688;2023-11-19T08:44:21;99822.69;;;16.63
51149;BMP280;37210;50.058;8.688;2023-11-19T08:46:49;99826.47;;;15.94
51149;BMP280;37210;50.058;8.688;2023-11-19T08:49:17;99834.28;;;16.28
51149;BMP280;37210;50.058;8.688;2023-11-19T08:51:45;99755.75;;;16.90
51149;BMP280;37210;50.058;8.688;2023-11-19T08:54:13;99783.81;;;16.39
51149;BMP280;37210;50.058;8.688;2023-11-19T08:56:42;99813.84;;;16.06
51149;BMP280;37210;50.058;8.688;2023-11-19T08:59:09;99802.56;;;15.70
51149;BMP280;37210;50.058;8.688;2023-11-19T09:01:37;99691.22;;;14.64
51149;BMP280;37210;50.058;8.688;2023-11-19T09:04:04;99857.31;;;15.60
51149;BMP280;37210;50.058;8.688;2023-11-19T09:06:32;99794.47;;;15.10
51149;BMP280;37210;50.058;8.688;2023-11-19T09:08:59;99844.28;;;15.54
51149;BMP280;37210;50.058;8.688;2023-11-19T09:11:28;99801.31;;;15.17
51149;BMP280;37210;50.058;8.688;2023-11-19T09:13:57;99801.53;;;15.43
51149;BMP280;37210;50.058;8.688;2023-11-19T09:16:25;99813.34;;;15.62
51149;BMP280;37210;50.058;8.688;2023-11-19T09:18:53;99745.84;;;15.55
51149;BMP280;37210;50.058;8.688;2023-11-19T09:21:20;99846.03;;;16.17
51149;BMP280;37210;50.058;8.688;2023-11-19T09:23:48;99830.94;;;15.92
51149;BMP280;37210;50.058;8.688;2023-11-19T09:26:16;99830.69;;;16.02
51149;BMP280;37210;50.058;8.688;2023-11-19T09:28:43;99824.66;;;15.66
51149;BMP280;37210;50.058;8.688;2023-11-19T09:31:16;99732.97;;;14.77
51149;BMP280;37210;50.058;8.688;2023-11-19T09:33:44;99808.59;;;15.41
51149;BMP280;37210;50.058;8.688;2023-11-19T09:36:12;99836.91;;;15.33
51149;BMP280;37210;50.058;8.688;2023-11-19T09:38:40;99811.91;;;15.49
51149;BMP280;37210;50.058;8.688;2023-11-19T09:41:09;99761.44;;;14.97
51149;BMP280;37210;50.058;8.688;2023-11-19T09:43:39;99835.13;;;15.35
51149;BMP280;37210;50.058;8.688;2023-11-19T09:46:10;99840.22;;;15.41
51149;BMP280;37210;50.058;8.688;2023-11-19T09:48:39;99797.19;;;15.07
51149;BMP280;37210;50.058;8.688;2023-11-19T09:51:07;99789.72;;;15.24
51149;BMP280;37210;50.058;8.688;2023-11-19T09:53:36;99842.97;;;15.70
51149;BMP280;37210;50.058;8.688;2023-11-19T09:56:05;99690.81;;;14.45
51149;BMP280;37210;50.058;8.688;2023-11-19T09:58:34;99758.44;;;15.12
51149;BMP280;37210;50.058;8.688;2023-11-19T10:01:02;99809.59;;;15.36
51149;BMP280;37210;50.058;8.688;2023-11-19T10:03:34;99705.59;;;14.84
51149;BMP280;37210;50.058;8.688;2023-11-19T10:06:06;99828.16;;;15.66
51149;BMP280;37210;50.058;8.688;2023-11-19T10:08:36;99816.28;;;15.50
51149;BMP280;37210;50.058;8.688;2023-11-19T10:11:06;99757.59;;;15.10
51149;BMP280;37210;50.058;8.688;2023-11-19T10:13:35;99813.34;;;15.61
51149;BMP280;37210;50.058;8.688;2023-11-19T10:16:07;99764.31;;;15.55
51149;BMP280;37210;50.058;8.688;2023-11-19T10:18:37;99840.41;;;15.99
51149;BMP280;37210;50.058;8.688;2023-11-19T10:21:07;99824.47;;;16.02
51149;BMP280;37210;50.058;8.688;2023-11-19T10:23:48;99826.84;;;16.12
51149;BMP280;37210;50.058;8.688;2023-11-19T10:26:18;99821.47;;;16.15
51149;BMP280;37210;50.058;8.688;2023-11-19T10:28:46;99821.03;;;16.30
51149;BMP280;37210;50.058;8.688;2023-11-19T10:31:14;99812.41;;;16.25
51149;BMP280;37210;50.058;8.688;2023-11-19T10:33:43;99804.75;;;16.45
51149;BMP280;37210;50.058;8.688;2023-11-19T10:36:12;99812.84;;;16.39
51149;BMP280;37210;50.058;8.688;2023-11-19T10:38:51;99824.63;;;16.27
51149;BMP280;37210;50.058;8.688;2023-11-19T10:41:28;99822.03;;;16.26
51149;BMP280;37210;50.058;8.688;2023-11-19T10:43:56;99793.31;;;16.15
51149;BMP280;37210;50.058;8.688;2023-11-19T10:46:36;99809.28;;;16.40
51149;BMP280;37210;50.058;8.688;2023-11-19T10:49:05;99781.44;;;16.00
51149;BMP280;37210;50.058;8.688;2023-11-19T10:51:35;99749.34;;;15.86
51149;BMP280;37210;50.058;8.688;2023-11-19T10:54:04;99795.88;;;16.18
51149;BMP280;37210;50.058;8.688;2023-11-19T10:56:33;99785.09;;;16.26
51149;BMP280;37210;50.058;8.688;2023-11-19T10:59:01;99757.19;;;16.19
51149;BMP280;37210;50.058;8.688;2023-11-19T11:01:37;99778.81;;;16.30
51149;BMP280;37210;50.058;8.688;2023-11-19T11:04:13;99780.69;;;15.97
51149;BMP280;37210;50.058;8.688;2023-11-19T11:06:43;99743.56;;;15.74
51149;BMP280;37210;50.058;8.688;2023-11-19T11:09:13;99738.78;;;15.86
51149;BMP280;37210;50.058;8.688;2023-11-19T11:11:46;99779.16;;;15.88
51149;BMP280;37210;50.058;8.688;2023-11-19T11:14:16;99759.59;;;15.34
51149;BMP280;37210;50.058;8.688;2023-11-19T11:16:46;99770.78;;;15.42
51149;BMP280;37210;50.058;8.688;2023-11-19T11:19:16;99742.44;;;15.52
51149;BMP280;37210;50.058;8.688;2023-11-19T11:21:47;99768.94;;;15.47
51149;BMP280;37210;50.058;8.688;2023-11-19T11:24:34;99781.19;;;15.48
51149;BMP280;37210;50.058;8.688;2023-11-19T11:27:48;99772.50;;;15.75
51149;BMP280;37210;50.058;8.688;2023-11-19T11:30:35;99774.63;;;15.93
51149;BMP280;37210;50.058;8.688;2023-11-19T11:33:26;99761.13;;;16.04
51149;BMP280;37210;50.058;8.688;2023-11-19T11:36:11;99777.88;;;16.03
51149;BMP280;37210;50.058;8.688;2023-11-19T11:38:48;99731.09;;;15.48
51149;BMP280;37210;50.058;8.688;2023-11-19T11:41:18;99783.88;;;16.08
51149;BMP280;37210;50.058;8.688;2023-11-19T11:43:47;99750.41;;;15.79
51149;BMP280;37210;50.058;8.688;2023-11-19T11:46:55;99761.78;;;16.11
51149;BMP280;37210;50.058;8.688;2023-11-19T11:49:27;99774.91;;;16.14
51149;BMP280;37210;50.058;8.688;2023-11-19T11:52:03;99781.88;;;16.16
51149;BMP280;37210;50.058;8.688;2023-11-19T11:54:32;99731.88;;;16.12
51149;BMP280;37210;50.058;8.688;2023-11-19T11:57:08;99763.44;;;16.15
51149;BMP280;37210;50.058;8.688;2023-11-19T11:59:46;99711.41;;;15.90
51149;BMP280;37210;50.058;8.688;2023-11-19T12:02:16;99761.47;;;15.92
51149;BMP280;37210;50.058;8.688;2023-11-19T12:04:50;99756.63;;;15.78
51149;BMP280;37210;50.058;8.688;2023-11-19T12:07:20;99757.31;;;15.85
51149;BMP280;37210;50.058;8.688;2023-11-19T12:09:52;99736.34;;;15.50
51149;BMP280;37210;50.058;8.688;2023-11-19T12:12:33;99766.44;;;15.41
51149;BMP280;37210;50.058;8.688;2023-11-19T12:15:03;99720.72;;;15.42
51149;BMP280;37210;50.058;8.688;2023-11-19T12:17:44;99744.94;;;15.56
51149;BMP280;37210;50.058;8.688;2023-11-19T12:20:16;99735.56;;;15.46
51149;BMP280;37210;50.058;8.688;2023-11-19T12:22:46;99757.50;;;15.77
51149;BMP280;37210;50.058;8.688;2023-11-19T12:25:17;99747.88;;;15.76
51149;BMP280;37210;50.058;8.688;2023-11-19T12:27:47;99629.41;;;14.78
51149;BMP280;37210;50.058;8.688;2023-11-19T12:30:17;99739.72;;;15.21
51149;BMP280;37210;50.058;8.688;2023-11-19T12:32:48;99736.78;;;15.33
51149;BMP280;37210;50.058;8.688;2023-11-19T12:35:16;99677.66;;;15.11
51149;BMP280;37210;50.058;8.688;2023-11-19T12:37:44;99594.72;;;14.64
51149;BMP280;37210;50.058;8.688;2023-11-19T12:40:19;99738.00;;;15.54
51149;BMP280;37210;50.058;8.688;2023-11-19T12:42:47;99736.97;;;15.88
51149;BMP280;37210;50.058;8.688;2023-11-19T12:45:16;99735.00;;;15.66
51149;BMP280;37210;50.058;8.688;2023-11-19T12:47:46;99722.69;;;15.66
51149;BMP280;37210;50.058;8.688;2023-11-19T12:50:15;99739.06;;;15.77
51149;BMP280;37210;50.058;8.688;2023-11-19T12:52:55;99677.78;;;15.39
51149;BMP280;37210;50.058;8.688;2023-11-19T12:55:28;99496.34;;;14.36
51149;BMP280;37210;50.058;8.688;2023-11-19T12:57:58;99740.81;;;16.08
51149;BMP280;37210;50.058;8.688;2023-11-19T13:00:27;99635.97;;;15.57
51149;BMP280;37210;50.058;8.688;2023-11-19T13:02:56;99728.28;;;16.42
51149;BMP280;37210;50.058;8.688;2023-11-19T13:05:26;99731.59;;;16.50
51149;BMP280;37210;50.058;8.688;2023-11-19T13:07:59;99629.47;;;15.96
51149;BMP280;37210;50.058;8.688;2023-11-19T13:10:29;99732.22;;;16.29
51149;BMP280;37210;50.058;8.688;2023-11-19T13:13:03;99692.72;;;16.26
51149;BMP280;37210;50.058;8.688;2023-11-19T13:15:32;99702.34;;;16.56
51149;BMP280;37210;50.058;8.688;2023-11-19T13:18:03;99724.28;;;16.58
51149;BMP280;37210;50.058;8.688;2023-11-19T13:20:32;99722.66;;;16.54
51149;BMP280;37210;50.058;8.688;2023-11-19T13:23:01;99731.31;;;16.30
51149;BMP280;37210;50.058;8.688;2023-11-19T13:25:31;99717.88;;;16.10
51149;BMP280;37210;50.058;8.688;2023-11-19T13:27:59;99728.94;;;15.93
51149;BMP280;37210;50.058;8.688;2023-11-19T13:30:28;99723.78;;;15.88
51149;BMP280;37210;50.058;8.688;2023-11-19T13:32:56;99655.75;;;15.41
51149;BMP280;37210;50.058;8.688;2023-11-19T13:35:23;99713.41;;;15.53
51149;BMP280;37210;50.058;8.688;2023-11-19T13:37:53;99690.31;;;15.61
51149;BMP280;37210;50.058;8.688;2023-11-19T13:40:21;99565.81;;;14.93
51149;BMP280;37210;50.058;8.688;2023-11-19T13:42:52;99667.13;;;15.43
51149;BMP280;37210;50.058;8.688;2023-11-19T13:45:19;99711.91;;;15.74
51149;BMP280;37210;50.058;8.688;2023-11-19T13:47:47;99713.03;;;15.65
51149;BMP280;37210;50.058;8.688;2023-11-19T13:50:16;99709.94;;;15.51
51149;BMP280;37210;50.058;8.688;2023-11-19T13:52:44;99708.44;;;15.41
51149;BMP280;37210;50.058;8.688;2023-11-19T13:55:13;99710.34;;;15.36
51149;BMP280;37210;50.058;8.688;2023-11-19T13:57:42;99650.72;;;15.01
51149;BMP280;37210;50.058;8.688;2023-11-19T14:00:12;99706.63;;;15.45
51149;BMP280;37210;50.058;8.688;2023-11-19T14:02:42;99524.59;;;14.28
51149;BMP280;37210;50.058;8.688;2023-11-19T14:05:10;99709.34;;;15.40
51149;BMP280;37210;50.058;8.688;2023-11-19T14:07:38;99701.41;;;15.43
51149;BMP280;37210;50.058;8.688;2023-11-19T14:10:09;99651.25;;;14.82
51149;BMP280;37210;50.058;8.688;2023-11-19T14:12:38;99506.09;;;14.32
51149;BMP280;37210;50.058;8.688;2023-11-19T14:15:06;99711.75;;;15.49
51149;BMP280;37210;50.058;8.688;2023-11-19T14:17:36;99627.88;;;15.02
51149;BMP280;37210;50.058;8.688;2023-11-19T14:20:05;99551.47;;;14.40
51149;BMP280;37210;50.058;8.688;2023-11-19T14:22:39;99657.34;;;15.16
51149;BMP280;37210;50.058;8.688;2023-11-19T14:25:07;99659.22;;;15.11